James Turecamo — WDC7565 — position and weather

sailwx.info

Track history (hours):
 
Tides and Currents Weather Stations Pressure Air Temp Water Temp Dewpoint Dewpoint Depression Visibility Wind Speed Wind Dir Waves Ship Positions

James Turecamo

Owner: Moran Towing Corporation, New Canaan, CT. More information available from US FCC via Universal Licensing System and Coast Guard Vessel Documentation Center.

Last reported at 2014-Oct-31 14:33 UTC. Time now 2014-Oct-31 15:35 UTC.
Position N 40°38' W 074°08'.

Length 27 m; draft 4.5 m.

Type: Tug. MMSI: 367073380.

Date/timePositionNaut miles runAvg speedWind from/ knotsBaromVisibWave heightAir tempDewpointWater temp
2014-Oct-31 14:33N 40°38' W 074°08'0 0.0
2014-Oct-31 13:33N 40°38' W 074°08'0 0.0
2014-Oct-31 12:33N 40°38' W 074°08'0 0.5
2014-Oct-31 11:33N 40°39' W 074°08'0 0.5
2014-Oct-31 10:33N 40°39' W 074°09'1 0.9
2014-Oct-31 09:33N 40°38' W 074°08'1 0.6
2014-Oct-31 08:33N 40°39' W 074°09'3 2.5
2014-Oct-31 07:30N 40°38' W 074°12'0 0.0
2014-Oct-31 06:26N 40°38' W 074°12'0 0.0
2014-Oct-31 05:33N 40°38' W 074°12'0 0.0
2014-Oct-31 04:16N 40°38' W 074°12'2 2.3
2014-Oct-31 03:33N 40°39' W 074°10'2 1.8
2014-Oct-31 02:33N 40°40' W 074°08'2 1.6
2014-Oct-31 01:33N 40°38' W 074°08'0 0.0
2014-Oct-31 00:33N 40°38' W 074°08'0 0.0
2014-Oct-30 23:33N 40°38' W 074°08'0 0.0
2014-Oct-30 22:33N 40°38' W 074°08'0 0.0
2014-Oct-30 21:33N 40°38' W 074°08'0 0.0
2014-Oct-30 20:33N 40°38' W 074°08'0 0.0
2014-Oct-30 19:33N 40°38' W 074°08'5 5.0
2014-Oct-30 18:33N 40°41' W 074°02'2 1.8
2014-Oct-30 17:33N 40°42' W 074°00'7 6.7
2014-Oct-30 16:33N 40°40' W 074°09'0 0.3
2014-Oct-30 15:33N 40°40' W 074°08'1 1.5
2014-Oct-30 14:33N 40°38' W 074°08'0 0.0
2014-Oct-30 13:31N 40°38' W 074°08'0 0.0
2014-Oct-30 12:33N 40°38' W 074°08'0 0.0
2014-Oct-30 11:33N 40°38' W 074°08'0 0.0
2014-Oct-30 10:33N 40°38' W 074°08'0 0.0
2014-Oct-30 09:33N 40°38' W 074°08'0 0.0
2014-Oct-30 08:33N 40°38' W 074°08'0 0.0
2014-Oct-30 07:33N 40°38' W 074°08'0 0.0
2014-Oct-30 06:33N 40°38' W 074°08'0 0.0
2014-Oct-30 05:33N 40°38' W 074°08'0 0.0
2014-Oct-30 04:33N 40°38' W 074°08'0 0.0
2014-Oct-30 03:33N 40°38' W 074°08'0 0.0
2014-Oct-30 02:33N 40°38' W 074°08'0 0.0
2014-Oct-30 01:33N 40°38' W 074°08'0 0.0
2014-Oct-30 00:33N 40°38' W 074°08'0 0.0
2014-Oct-29 23:26N 40°38' W 074°08'0 0.0
2014-Oct-29 22:33N 40°38' W 074°08'0 0.0
2014-Oct-29 21:33N 40°38' W 074°08'0 0.0
2014-Oct-29 20:33N 40°38' W 074°08'0 0.0
2014-Oct-29 19:33N 40°38' W 074°08'0 0.0
2014-Oct-29 18:33N 40°38' W 074°08'0 0.0
2014-Oct-29 17:33N 40°38' W 074°08'0 0.0
2014-Oct-29 16:33N 40°38' W 074°08'0 0.0
2014-Oct-29 15:33N 40°38' W 074°08'0 0.0
2014-Oct-29 14:31N 40°38' W 074°08'0 0.0
2014-Oct-29 13:33N 40°38' W 074°08'0 0.0
2014-Oct-29 12:33N 40°38' W 074°08'0 0.0
2014-Oct-29 11:33N 40°38' W 074°08'1 0.8
2014-Oct-29 10:33N 40°39' W 074°07'1 0.9
2014-Oct-29 09:33N 40°38' W 074°08'0 0.0
2014-Oct-29 08:33N 40°38' W 074°08'0 0.0
2014-Oct-29 07:33N 40°38' W 074°08'0 0.0
2014-Oct-29 06:33N 40°38' W 074°08'0 0.0
2014-Oct-29 05:33N 40°38' W 074°08'0 0.0
2014-Oct-29 04:33N 40°38' W 074°08'0 0.0
2014-Oct-29 03:33N 40°38' W 074°08'0 0.0
2014-Oct-29 02:33N 40°38' W 074°08'0 0.0
2014-Oct-29 01:33N 40°38' W 074°08'0 0.0
2014-Oct-29 00:32N 40°38' W 074°08'0 0.0
2014-Oct-28 23:30N 40°38' W 074°08'0 0.0
2014-Oct-28 22:33N 40°38' W 074°08'0 0.0
2014-Oct-28 21:33N 40°38' W 074°08'0 0.0
2014-Oct-28 20:33N 40°38' W 074°08'0 0.0
2014-Oct-28 19:29N 40°38' W 074°08'0 0.0
2014-Oct-28 18:30N 40°38' W 074°08'2 1.9
2014-Oct-28 17:33N 40°39' W 074°06'0 0.2
2014-Oct-28 16:16N 40°39' W 074°06'1 1.3
2014-Oct-28 15:34N 40°39' W 074°05'0 0.5
2014-Oct-28 14:33N 40°40' W 074°04'0 0.0
2014-Oct-28 13:33N 40°40' W 074°04'1 1.5
2014-Oct-28 12:33N 40°39' W 074°06'1 1.5
2014-Oct-28 11:33N 40°38' W 074°08'0 0.0
2014-Oct-28 10:32N 40°38' W 074°08'1 1.0
2014-Oct-28 09:33N 40°39' W 074°07'1 1.0
2014-Oct-28 08:33N 40°38' W 074°08'0 0.0
2014-Oct-28 07:33N 40°38' W 074°08'0 0.0
2014-Oct-28 06:33N 40°38' W 074°08'0 0.0
2014-Oct-28 05:31N 40°38' W 074°08'0 0.0
2014-Oct-28 04:33N 40°38' W 074°08'0 0.0
2014-Oct-28 03:24N 40°38' W 074°08'0 0.0
2014-Oct-28 02:26N 40°38' W 074°08'0 0.0
2014-Oct-28 01:16N 40°38' W 074°08'0 0.0
2014-Oct-27 23:14N 40°38' W 074°08'0 0.0
2014-Oct-27 22:22N 40°38' W 074°08'3 2.6
2014-Oct-27 21:11N 40°41' W 074°08'0 0.0
2014-Oct-27 20:10N 40°41' W 074°08'4 6.5
2014-Oct-27 19:33N 40°45' W 074°05'1 0.4
2014-Oct-27 16:27N 40°45' W 074°06'1 1.6
2014-Oct-27 15:33N 40°44' W 074°06'2 1.6
2014-Oct-27 14:28N 40°43' W 074°07'4 4.8
2014-Oct-27 13:33N 40°38' W 074°09'1 1.3
2014-Oct-27 12:33N 40°40' W 074°08'1 1.5
2014-Oct-27 11:33N 40°38' W 074°08'3 3.1
2014-Oct-27 10:33N 40°40' W 074°04'2 2.3
2014-Oct-27 09:33N 40°38' W 074°03'4 3.1
2014-Oct-27 08:23N 40°38' W 074°08'0 0.0
2014-Oct-27 07:33N 40°38' W 074°08'0 0.0
2014-Oct-27 06:33N 40°38' W 074°08'2 0.4
2014-Oct-27 02:34N 40°39' W 074°06'2 1.6
2014-Oct-27 01:34N 40°39' W 074°04'3 1.3
2014-Oct-26 23:11N 40°38' W 074°08'6 9.6
2014-Oct-26 22:33N 40°41' W 074°01'2 2.4
2014-Oct-26 21:33N 40°39' W 074°03'4 1.2
2014-Oct-26 18:16N 40°38' W 074°08'0 0.0
2014-Oct-26 17:10N 40°38' W 074°08'1 0.2
2014-Oct-26 14:33N 40°39' W 074°08'3 2.8
2014-Oct-26 13:33N 40°38' W 074°12'3 3.3
2014-Oct-26 12:32N 40°38' W 074°08'0 0.0
2014-Oct-26 11:32N 40°38' W 074°08'0 0.0
2014-Oct-26 10:21N 40°38' W 074°08'0 0.0
2014-Oct-26 09:30N 40°38' W 074°08'0 0.0
2014-Oct-26 08:32N 40°38' W 074°08'0 0.0
2014-Oct-26 07:33N 40°38' W 074°08'0 0.0
2014-Oct-26 05:20N 40°38' W 074°08'0 0.0
2014-Oct-26 04:31N 40°38' W 074°08'0 0.0
2014-Oct-26 03:33N 40°38' W 074°08'0 0.0
2014-Oct-26 02:28N 40°38' W 074°08'0 0.0
2014-Oct-26 01:33N 40°38' W 074°08'0 0.0
2014-Oct-26 00:32N 40°38' W 074°08'0 0.0
2014-Oct-25 23:08N 40°38' W 074°08'0 0.0
2014-Oct-25 22:23N 40°38' W 074°08'3 2.8
2014-Oct-25 21:28N 40°41' W 074°08'2 2.5
2014-Oct-25 20:31N 40°39' W 074°09'1 0.3
2014-Oct-25 18:17N 40°38' W 074°08'0 0.0
2014-Oct-25 17:28N 40°38' W 074°08'0 0.0
2014-Oct-25 16:29N 40°38' W 074°08'0 0.0
2014-Oct-25 15:29N 40°38' W 074°08'0 0.0
2014-Oct-25 14:27N 40°38' W 074°08'0 0.0
2014-Oct-25 13:32N 40°38' W 074°08'0 0.0
2014-Oct-25 12:33N 40°38' W 074°08'2 2.5
2014-Oct-25 11:33N 40°39' W 074°11'4 3.8
2014-Oct-25 10:33N 40°35' W 074°13'3 2.6
2014-Oct-25 09:33N 40°38' W 074°12'3 3.4
2014-Oct-25 08:33N 40°38' W 074°08'0 0.0
2014-Oct-25 07:33N 40°38' W 074°08'4 3.3
2014-Oct-25 06:28N 40°42' W 074°09'0 0.2
2014-Oct-25 05:33N 40°42' W 074°09'1 0.7
2014-Oct-25 04:32N 40°41' W 074°08'1 0.7
2014-Oct-25 02:32N 40°40' W 074°08'2 1.6
2014-Oct-25 01:33N 40°38' W 074°08'0 0.0
2014-Oct-25 00:33N 40°38' W 074°08'0 0.0
2014-Oct-24 23:33N 40°38' W 074°08'0 0.0
2014-Oct-24 22:33N 40°38' W 074°08'0 0.0
2014-Oct-24 21:33N 40°38' W 074°08'2 2.2
2014-Oct-24 20:31N 40°39' W 074°11'2 2.1
2014-Oct-24 19:25N 40°38' W 074°08'0 0.0
2014-Oct-24 18:03N 40°38' W 074°08'0 0.0
2014-Oct-24 17:25N 40°38' W 074°08'0 0.0
2014-Oct-24 16:33N 40°38' W 074°08'0 0.0
2014-Oct-24 15:33N 40°38' W 074°08'0 0.0
2014-Oct-24 14:32N 40°38' W 074°08'0 0.0
2014-Oct-24 13:33N 40°38' W 074°08'0 0.0
2014-Oct-24 12:33N 40°38' W 074°08'0 0.0
2014-Oct-24 11:33N 40°38' W 074°08'2 2.0
2014-Oct-24 10:33N 40°40' W 074°08'1 1.4
2014-Oct-24 09:33N 40°42' W 074°09'0 0.1
2014-Oct-24 08:30N 40°42' W 074°09'4 3.8
2014-Oct-24 07:33N 40°39' W 074°05'1 0.8
2014-Oct-24 06:33N 40°39' W 074°04'3 2.6
2014-Oct-24 05:33N 40°39' W 074°08'4 3.3
2014-Oct-24 04:29N 40°38' W 074°12'3 1.1
2014-Oct-24 01:25N 40°38' W 074°08'6 7.1
2014-Oct-24 00:33N 40°41' W 074°01'7 6.7
2014-Oct-23 23:33N 40°39' W 074°09'1 1.0
2014-Oct-23 22:33N 40°40' W 074°08'2 1.2
2014-Oct-23 21:11N 40°38' W 074°08'0 0.0
2014-Oct-23 20:31N 40°38' W 074°08'0 0.0
2014-Oct-23 19:26N 40°38' W 074°08'0 0.0
2014-Oct-23 18:26N 40°38' W 074°08'0 0.0
2014-Oct-23 17:15N 40°38' W 074°08'0 0.0
2014-Oct-23 16:31N 40°38' W 074°08'2 2.0
2014-Oct-23 15:33N 40°39' W 074°10'2 1.8
2014-Oct-23 14:33N 40°39' W 074°08'0 0.2
2014-Oct-23 13:33N 40°38' W 074°08'0 0.0
2014-Oct-23 12:28N 40°38' W 074°08'0 0.0
2014-Oct-23 11:32N 40°38' W 074°08'0 0.0
2014-Oct-23 10:33N 40°38' W 074°08'0 0.0
2014-Oct-23 08:26N 40°38' W 074°08'0 0.0
2014-Oct-23 07:27N 40°38' W 074°08'0 0.0
2014-Oct-23 04:25N 40°38' W 074°08'6 7.0
2014-Oct-23 03:33N 40°41' W 074°01'6 6.0
2014-Oct-23 02:33N 40°38' W 074°08'0 0.0
2014-Oct-23 01:28N 40°38' W 074°08'0 0.0
2014-Oct-23 00:33N 40°38' W 074°08'0 0.0
2014-Oct-22 23:32N 40°38' W 074°08'0 0.0
2014-Oct-22 22:33N 40°38' W 074°08'0 0.0
2014-Oct-22 21:33N 40°38' W 074°08'0 0.0
2014-Oct-22 20:33N 40°38' W 074°08'0 0.0
2014-Oct-22 19:33N 40°38' W 074°08'0 0.0
2014-Oct-22 18:32N 40°38' W 074°08'0 0.0
2014-Oct-22 17:29N 40°38' W 074°08'7 6.8
2014-Oct-22 16:24N 40°33' W 074°15'5 1.5
2014-Oct-22 13:23N 40°37' W 074°12'3 4.2
2014-Oct-22 12:33N 40°38' W 074°08'0 0.0
2014-Oct-22 11:33N 40°38' W 074°08'3 2.6
2014-Oct-22 10:33N 40°41' W 074°09'2 2.0
2014-Oct-22 09:33N 40°39' W 074°09'1 1.0
2014-Oct-22 08:33N 40°38' W 074°08'3 0.8
2014-Oct-22 04:31N 40°38' W 074°12'3 1.5
2014-Oct-22 02:22N 40°38' W 074°08'0 0.0
2014-Oct-22 01:27N 40°38' W 074°08'7 8.2
2014-Oct-22 00:33N 40°42' W 073°60'1 0.8
2014-Oct-21 23:33N 40°42' W 074°00'7 6.5
2014-Oct-21 22:33N 40°38' W 074°08'0 0.0
2014-Oct-21 21:33N 40°38' W 074°08'0 0.0
2014-Oct-21 20:33N 40°38' W 074°08'0 0.0
2014-Oct-21 19:33N 40°38' W 074°08'0 0.0
2014-Oct-21 18:33N 40°38' W 074°08'0 0.0
2014-Oct-21 17:33N 40°38' W 074°08'0 0.0
2014-Oct-21 16:33N 40°38' W 074°08'0 0.0
2014-Oct-21 15:33N 40°38' W 074°08'0 0.0
2014-Oct-21 14:33N 40°38' W 074°08'  
Track history (hours):
 
Tides and Currents Weather Stations Pressure Air Temp Water Temp Dewpoint Dewpoint Depression Visibility Wind Speed Wind Dir Waves Ship Positions

James Turecamo

Owner: Moran Towing Corporation, New Canaan, CT. More information available from US FCC via Universal Licensing System and Coast Guard Vessel Documentation Center.

Last reported at 2014-Oct-31 14:33 UTC. Time now 2014-Oct-31 15:35 UTC.
Position N 40°38' W 074°08'.

Length 27 m; draft 4.5 m.

Type: Tug. MMSI: 367073380.

Date/timePositionNaut miles runAvg speedWind from/ knotsBaromVisibWave heightAir tempDewpointWater temp
2014-Oct-31 14:33N 40°38' W 074°08'0 0.0
2014-Oct-31 13:33N 40°38' W 074°08'0 0.0
2014-Oct-31 12:33N 40°38' W 074°08'0 0.5
2014-Oct-31 11:33N 40°39' W 074°08'0 0.5
2014-Oct-31 10:33N 40°39' W 074°09'1 0.9
2014-Oct-31 09:33N 40°38' W 074°08'1 0.6
2014-Oct-31 08:33N 40°39' W 074°09'3 2.5
2014-Oct-31 07:30N 40°38' W 074°12'0 0.0
2014-Oct-31 06:26N 40°38' W 074°12'0 0.0
2014-Oct-31 05:33N 40°38' W 074°12'0 0.0
2014-Oct-31 04:16N 40°38' W 074°12'2 2.3
2014-Oct-31 03:33N 40°39' W 074°10'2 1.8
2014-Oct-31 02:33N 40°40' W 074°08'2 1.6
2014-Oct-31 01:33N 40°38' W 074°08'0 0.0
2014-Oct-31 00:33N 40°38' W 074°08'0 0.0
2014-Oct-30 23:33N 40°38' W 074°08'0 0.0
2014-Oct-30 22:33N 40°38' W 074°08'0 0.0
2014-Oct-30 21:33N 40°38' W 074°08'0 0.0
2014-Oct-30 20:33N 40°38' W 074°08'0 0.0
2014-Oct-30 19:33N 40°38' W 074°08'5 5.0
2014-Oct-30 18:33N 40°41' W 074°02'2 1.8
2014-Oct-30 17:33N 40°42' W 074°00'7 6.7
2014-Oct-30 16:33N 40°40' W 074°09'0 0.3
2014-Oct-30 15:33N 40°40' W 074°08'1 1.5
2014-Oct-30 14:33N 40°38' W 074°08'0 0.0
2014-Oct-30 13:31N 40°38' W 074°08'0 0.0
2014-Oct-30 12:33N 40°38' W 074°08'0 0.0
2014-Oct-30 11:33N 40°38' W 074°08'0 0.0
2014-Oct-30 10:33N 40°38' W 074°08'0 0.0
2014-Oct-30 09:33N 40°38' W 074°08'0 0.0
2014-Oct-30 08:33N 40°38' W 074°08'0 0.0
2014-Oct-30 07:33N 40°38' W 074°08'0 0.0
2014-Oct-30 06:33N 40°38' W 074°08'0 0.0
2014-Oct-30 05:33N 40°38' W 074°08'0 0.0
2014-Oct-30 04:33N 40°38' W 074°08'0 0.0
2014-Oct-30 03:33N 40°38' W 074°08'0 0.0
2014-Oct-30 02:33N 40°38' W 074°08'0 0.0
2014-Oct-30 01:33N 40°38' W 074°08'0 0.0
2014-Oct-30 00:33N 40°38' W 074°08'0 0.0
2014-Oct-29 23:26N 40°38' W 074°08'0 0.0
2014-Oct-29 22:33N 40°38' W 074°08'0 0.0
2014-Oct-29 21:33N 40°38' W 074°08'0 0.0
2014-Oct-29 20:33N 40°38' W 074°08'0 0.0
2014-Oct-29 19:33N 40°38' W 074°08'0 0.0
2014-Oct-29 18:33N 40°38' W 074°08'0 0.0
2014-Oct-29 17:33N 40°38' W 074°08'0 0.0
2014-Oct-29 16:33N 40°38' W 074°08'0 0.0
2014-Oct-29 15:33N 40°38' W 074°08'0 0.0
2014-Oct-29 14:31N 40°38' W 074°08'0 0.0
2014-Oct-29 13:33N 40°38' W 074°08'0 0.0
2014-Oct-29 12:33N 40°38' W 074°08'0 0.0
2014-Oct-29 11:33N 40°38' W 074°08'1 0.8
2014-Oct-29 10:33N 40°39' W 074°07'1 0.9
2014-Oct-29 09:33N 40°38' W 074°08'0 0.0
2014-Oct-29 08:33N 40°38' W 074°08'0 0.0
2014-Oct-29 07:33N 40°38' W 074°08'0 0.0
2014-Oct-29 06:33N 40°38' W 074°08'0 0.0
2014-Oct-29 05:33N 40°38' W 074°08'0 0.0
2014-Oct-29 04:33N 40°38' W 074°08'0 0.0
2014-Oct-29 03:33N 40°38' W 074°08'0 0.0
2014-Oct-29 02:33N 40°38' W 074°08'0 0.0
2014-Oct-29 01:33N 40°38' W 074°08'0 0.0
2014-Oct-29 00:32N 40°38' W 074°08'0 0.0
2014-Oct-28 23:30N 40°38' W 074°08'0 0.0
2014-Oct-28 22:33N 40°38' W 074°08'0 0.0
2014-Oct-28 21:33N 40°38' W 074°08'0 0.0
2014-Oct-28 20:33N 40°38' W 074°08'0 0.0
2014-Oct-28 19:29N 40°38' W 074°08'0 0.0
2014-Oct-28 18:30N 40°38' W 074°08'2 1.9
2014-Oct-28 17:33N 40°39' W 074°06'0 0.2
2014-Oct-28 16:16N 40°39' W 074°06'1 1.3
2014-Oct-28 15:34N 40°39' W 074°05'0 0.5
2014-Oct-28 14:33N 40°40' W 074°04'0 0.0
2014-Oct-28 13:33N 40°40' W 074°04'1 1.5
2014-Oct-28 12:33N 40°39' W 074°06'1 1.5
2014-Oct-28 11:33N 40°38' W 074°08'0 0.0
2014-Oct-28 10:32N 40°38' W 074°08'1 1.0
2014-Oct-28 09:33N 40°39' W 074°07'1 1.0
2014-Oct-28 08:33N 40°38' W 074°08'0 0.0
2014-Oct-28 07:33N 40°38' W 074°08'0 0.0
2014-Oct-28 06:33N 40°38' W 074°08'0 0.0
2014-Oct-28 05:31N 40°38' W 074°08'0 0.0
2014-Oct-28 04:33N 40°38' W 074°08'0 0.0
2014-Oct-28 03:24N 40°38' W 074°08'0 0.0
2014-Oct-28 02:26N 40°38' W 074°08'0 0.0
2014-Oct-28 01:16N 40°38' W 074°08'0 0.0
2014-Oct-27 23:14N 40°38' W 074°08'0 0.0
2014-Oct-27 22:22N 40°38' W 074°08'3 2.6
2014-Oct-27 21:11N 40°41' W 074°08'0 0.0
2014-Oct-27 20:10N 40°41' W 074°08'4 6.5
2014-Oct-27 19:33N 40°45' W 074°05'1 0.4
2014-Oct-27 16:27N 40°45' W 074°06'1 1.6
2014-Oct-27 15:33N 40°44' W 074°06'2 1.6
2014-Oct-27 14:28N 40°43' W 074°07'4 4.8
2014-Oct-27 13:33N 40°38' W 074°09'1 1.3
2014-Oct-27 12:33N 40°40' W 074°08'1 1.5
2014-Oct-27 11:33N 40°38' W 074°08'3 3.1
2014-Oct-27 10:33N 40°40' W 074°04'2 2.3
2014-Oct-27 09:33N 40°38' W 074°03'4 3.1
2014-Oct-27 08:23N 40°38' W 074°08'0 0.0
2014-Oct-27 07:33N 40°38' W 074°08'0 0.0
2014-Oct-27 06:33N 40°38' W 074°08'2 0.4
2014-Oct-27 02:34N 40°39' W 074°06'2 1.6
2014-Oct-27 01:34N 40°39' W 074°04'3 1.3
2014-Oct-26 23:11N 40°38' W 074°08'6 9.6
2014-Oct-26 22:33N 40°41' W 074°01'2 2.4
2014-Oct-26 21:33N 40°39' W 074°03'4 1.2
2014-Oct-26 18:16N 40°38' W 074°08'0 0.0
2014-Oct-26 17:10N 40°38' W 074°08'1 0.2
2014-Oct-26 14:33N 40°39' W 074°08'3 2.8
2014-Oct-26 13:33N 40°38' W 074°12'3 3.3
2014-Oct-26 12:32N 40°38' W 074°08'0 0.0
2014-Oct-26 11:32N 40°38' W 074°08'0 0.0
2014-Oct-26 10:21N 40°38' W 074°08'0 0.0
2014-Oct-26 09:30N 40°38' W 074°08'0 0.0
2014-Oct-26 08:32N 40°38' W 074°08'0 0.0
2014-Oct-26 07:33N 40°38' W 074°08'0 0.0
2014-Oct-26 05:20N 40°38' W 074°08'0 0.0
2014-Oct-26 04:31N 40°38' W 074°08'0 0.0
2014-Oct-26 03:33N 40°38' W 074°08'0 0.0
2014-Oct-26 02:28N 40°38' W 074°08'0 0.0
2014-Oct-26 01:33N 40°38' W 074°08'0 0.0
2014-Oct-26 00:32N 40°38' W 074°08'0 0.0
2014-Oct-25 23:08N 40°38' W 074°08'0 0.0
2014-Oct-25 22:23N 40°38' W 074°08'3 2.8
2014-Oct-25 21:28N 40°41' W 074°08'2 2.5
2014-Oct-25 20:31N 40°39' W 074°09'1 0.3
2014-Oct-25 18:17N 40°38' W 074°08'0 0.0
2014-Oct-25 17:28N 40°38' W 074°08'0 0.0
2014-Oct-25 16:29N 40°38' W 074°08'0 0.0
2014-Oct-25 15:29N 40°38' W 074°08'0 0.0
2014-Oct-25 14:27N 40°38' W 074°08'0 0.0
2014-Oct-25 13:32N 40°38' W 074°08'0 0.0
2014-Oct-25 12:33N 40°38' W 074°08'2 2.5
2014-Oct-25 11:33N 40°39' W 074°11'4 3.8
2014-Oct-25 10:33N 40°35' W 074°13'3 2.6
2014-Oct-25 09:33N 40°38' W 074°12'3 3.4
2014-Oct-25 08:33N 40°38' W 074°08'0 0.0
2014-Oct-25 07:33N 40°38' W 074°08'4 3.3
2014-Oct-25 06:28N 40°42' W 074°09'0 0.2
2014-Oct-25 05:33N 40°42' W 074°09'1 0.7
2014-Oct-25 04:32N 40°41' W 074°08'1 0.7
2014-Oct-25 02:32N 40°40' W 074°08'2 1.6
2014-Oct-25 01:33N 40°38' W 074°08'0 0.0
2014-Oct-25 00:33N 40°38' W 074°08'0 0.0
2014-Oct-24 23:33N 40°38' W 074°08'0 0.0
2014-Oct-24 22:33N 40°38' W 074°08'0 0.0
2014-Oct-24 21:33N 40°38' W 074°08'2 2.2
2014-Oct-24 20:31N 40°39' W 074°11'2 2.1
2014-Oct-24 19:25N 40°38' W 074°08'0 0.0
2014-Oct-24 18:03N 40°38' W 074°08'0 0.0
2014-Oct-24 17:25N 40°38' W 074°08'0 0.0
2014-Oct-24 16:33N 40°38' W 074°08'0 0.0
2014-Oct-24 15:33N 40°38' W 074°08'0 0.0
2014-Oct-24 14:32N 40°38' W 074°08'0 0.0
2014-Oct-24 13:33N 40°38' W 074°08'0 0.0
2014-Oct-24 12:33N 40°38' W 074°08'0 0.0
2014-Oct-24 11:33N 40°38' W 074°08'2 2.0
2014-Oct-24 10:33N 40°40' W 074°08'1 1.4
2014-Oct-24 09:33N 40°42' W 074°09'0 0.1
2014-Oct-24 08:30N 40°42' W 074°09'4 3.8
2014-Oct-24 07:33N 40°39' W 074°05'1 0.8
2014-Oct-24 06:33N 40°39' W 074°04'3 2.6
2014-Oct-24 05:33N 40°39' W 074°08'4 3.3
2014-Oct-24 04:29N 40°38' W 074°12'3 1.1
2014-Oct-24 01:25N 40°38' W 074°08'6 7.1
2014-Oct-24 00:33N 40°41' W 074°01'7 6.7
2014-Oct-23 23:33N 40°39' W 074°09'1 1.0
2014-Oct-23 22:33N 40°40' W 074°08'2 1.2
2014-Oct-23 21:11N 40°38' W 074°08'0 0.0
2014-Oct-23 20:31N 40°38' W 074°08'0 0.0
2014-Oct-23 19:26N 40°38' W 074°08'0 0.0
2014-Oct-23 18:26N 40°38' W 074°08'0 0.0
2014-Oct-23 17:15N 40°38' W 074°08'0 0.0
2014-Oct-23 16:31N 40°38' W 074°08'2 2.0
2014-Oct-23 15:33N 40°39' W 074°10'2 1.8
2014-Oct-23 14:33N 40°39' W 074°08'0 0.2
2014-Oct-23 13:33N 40°38' W 074°08'0 0.0
2014-Oct-23 12:28N 40°38' W 074°08'0 0.0
2014-Oct-23 11:32N 40°38' W 074°08'0 0.0
2014-Oct-23 10:33N 40°38' W 074°08'0 0.0
2014-Oct-23 08:26N 40°38' W 074°08'0 0.0
2014-Oct-23 07:27N 40°38' W 074°08'0 0.0
2014-Oct-23 04:25N 40°38' W 074°08'6 7.0
2014-Oct-23 03:33N 40°41' W 074°01'6 6.0
2014-Oct-23 02:33N 40°38' W 074°08'0 0.0
2014-Oct-23 01:28N 40°38' W 074°08'0 0.0
2014-Oct-23 00:33N 40°38' W 074°08'0 0.0
2014-Oct-22 23:32N 40°38' W 074°08'0 0.0
2014-Oct-22 22:33N 40°38' W 074°08'0 0.0
2014-Oct-22 21:33N 40°38' W 074°08'0 0.0
2014-Oct-22 20:33N 40°38' W 074°08'0 0.0
2014-Oct-22 19:33N 40°38' W 074°08'0 0.0
2014-Oct-22 18:32N 40°38' W 074°08'0 0.0
2014-Oct-22 17:29N 40°38' W 074°08'7 6.8
2014-Oct-22 16:24N 40°33' W 074°15'5 1.5
2014-Oct-22 13:23N 40°37' W 074°12'3 4.2
2014-Oct-22 12:33N 40°38' W 074°08'0 0.0
2014-Oct-22 11:33N 40°38' W 074°08'3 2.6
2014-Oct-22 10:33N 40°41' W 074°09'2 2.0
2014-Oct-22 09:33N 40°39' W 074°09'1 1.0
2014-Oct-22 08:33N 40°38' W 074°08'3 0.8
2014-Oct-22 04:31N 40°38' W 074°12'3 1.5
2014-Oct-22 02:22N 40°38' W 074°08'0 0.0
2014-Oct-22 01:27N 40°38' W 074°08'7 8.2
2014-Oct-22 00:33N 40°42' W 073°60'1 0.8
2014-Oct-21 23:33N 40°42' W 074°00'7 6.5
2014-Oct-21 22:33N 40°38' W 074°08'0 0.0
2014-Oct-21 21:33N 40°38' W 074°08'0 0.0
2014-Oct-21 20:33N 40°38' W 074°08'0 0.0
2014-Oct-21 19:33N 40°38' W 074°08'0 0.0
2014-Oct-21 18:33N 40°38' W 074°08'0 0.0
2014-Oct-21 17:33N 40°38' W 074°08'0 0.0
2014-Oct-21 16:33N 40°38' W 074°08'0 0.0
2014-Oct-21 15:33N 40°38' W 074°08'0 0.0
2014-Oct-21 14:33N 40°38' W 074°08'  

Dump ship's entire track history